Terminal Aerodrome Forecast
Issued by NWS Paducah, KY

Home | Current Version | Previous Version | Graphics & Text | Print | Product List | Glossary On
Versions: 1 2 3 4 5 6 7 8 9 10 11 12 13 14 15 16 17 18 19
000
FTUS43 KPAH 050842 AAB
TAFPAH
TAF AMD
KPAH 050842Z 0509/0606 00000KT 1 1/2SM BR SKC
      TEMPO 0509/0512 1/4SM FG VV001
     FM051400 10002KT P6SM SKC
     FM051530 09004KT P6SM SCT060
     FM060100 00000KT P6SM SKC=

USA.gov is the U.S. government's official web portal to all federal, state and local government web resources and services.